createdAt,value
2018-04-15T00:01:07.019Z,99.90
2018-04-15T00:03:34.618Z,99.70
2018-04-15T00:06:02.175Z,99.90
2018-04-15T00:08:29.666Z,99.90
2018-04-15T00:10:57.185Z,99.90
2018-04-15T00:13:25.440Z,99.90
2018-04-15T00:15:52.932Z,99.90
2018-04-15T00:18:20.430Z,99.90
2018-04-15T00:20:47.931Z,99.90
2018-04-15T00:23:16.303Z,99.90
2018-04-15T00:25:44.568Z,99.90
2018-04-15T00:28:12.859Z,99.90
2018-04-15T00:30:40.342Z,99.90
2018-04-15T00:33:07.844Z,99.90
2018-04-15T00:35:35.337Z,99.90
2018-04-15T00:38:02.826Z,99.90
2018-04-15T00:40:30.311Z,99.90
2018-04-15T00:42:57.904Z,99.90
2018-04-15T00:45:25.459Z,99.90
2018-04-15T00:47:52.971Z,99.90
2018-04-15T00:50:20.476Z,99.90
2018-04-15T00:52:48.037Z,99.90
2018-04-15T00:55:15.569Z,99.90
2018-04-15T00:57:43.853Z,99.90
2018-04-15T01:00:11.438Z,99.90
2018-04-15T01:02:38.944Z,99.90
2018-04-15T01:05:06.452Z,99.90
2018-04-15T01:07:33.944Z,99.90
2018-04-15T01:10:01.448Z,99.90
2018-04-15T01:12:29.023Z,99.90
2018-04-15T01:14:56.555Z,99.90
2018-04-15T01:17:24.798Z,99.90
2018-04-15T01:19:52.396Z,99.90
2018-04-15T01:22:19.882Z,99.90
2018-04-15T01:24:47.370Z,99.90
2018-04-15T01:27:14.960Z,99.90
2018-04-15T01:29:43.197Z,99.90
2018-04-15T01:32:11.371Z,99.90
2018-04-15T01:34:38.957Z,99.90
2018-04-15T01:37:07.210Z,99.90
2018-04-15T01:39:34.700Z,99.90
2018-04-15T01:42:02.249Z,99.90
2018-04-15T01:44:30.486Z,99.90
2018-04-15T01:46:57.991Z,99.90
2018-04-15T01:49:25.534Z,99.90
2018-04-15T01:51:53.784Z,99.90
2018-04-15T01:54:21.288Z,99.90
2018-04-15T01:56:48.823Z,99.90
2018-04-15T01:59:18.946Z,99.90
2018-04-15T02:01:47.234Z,99.90
2018-04-15T02:04:14.782Z,99.90
2018-04-15T02:06:43.051Z,99.90
2018-04-15T02:09:11.309Z,99.90
2018-04-15T02:11:39.563Z,99.90
2018-04-15T02:14:07.060Z,99.90
2018-04-15T02:16:35.319Z,99.90
2018-04-15T02:19:03.567Z,99.90
2018-04-15T02:21:31.175Z,99.90
2018-04-15T02:23:58.667Z,99.90
2018-04-15T02:26:26.180Z,99.90
2018-04-15T02:28:54.443Z,99.90
2018-04-15T02:31:22.682Z,99.90
2018-04-15T02:33:50.200Z,99.90
2018-04-15T02:36:17.749Z,99.90
2018-04-15T02:38:45.239Z,99.90
2018-04-15T02:41:12.739Z,99.90
2018-04-15T02:43:41.001Z,99.90
2018-04-15T02:46:08.544Z,99.90
2018-04-15T02:48:36.039Z,99.90
2018-04-15T02:51:04.285Z,99.90
2018-04-15T02:53:31.776Z,99.90
2018-04-15T02:55:59.282Z,99.90
2018-04-15T02:58:26.781Z,99.90
2018-04-15T03:00:55.064Z,99.90
2018-04-15T03:03:22.552Z,99.90
2018-04-15T03:05:50.053Z,99.90
2018-04-15T03:08:17.635Z,99.90
2018-04-15T03:10:45.133Z,99.90
2018-04-15T03:13:12.638Z,99.90
2018-04-15T03:15:40.930Z,99.90
2018-04-15T03:18:08.469Z,99.90
2018-04-15T03:20:36.756Z,99.90
2018-04-15T03:23:04.263Z,99.90
2018-04-15T03:25:31.767Z,99.90
2018-04-15T03:28:00.011Z,99.90
2018-04-15T03:30:27.589Z,99.90
2018-04-15T03:32:55.883Z,99.90
2018-04-15T03:35:23.367Z,99.90
2018-04-15T03:37:50.992Z,99.90
2018-04-15T03:40:18.468Z,99.90
2018-04-15T03:42:45.998Z,99.90
2018-04-15T03:45:14.384Z,99.90
2018-04-15T03:47:41.939Z,99.90
2018-04-15T03:50:09.444Z,99.90
2018-04-15T03:52:36.933Z,99.90
2018-04-15T03:55:05.191Z,99.90
2018-04-15T03:57:32.691Z,99.90
2018-04-15T04:00:00.238Z,99.90
2018-04-15T04:02:28.495Z,99.90
2018-04-15T04:04:56.757Z,99.90
2018-04-15T04:07:24.243Z,99.90
2018-04-15T04:09:52.620Z,99.90
2018-04-15T04:12:20.886Z,99.90
2018-04-15T04:14:49.147Z,99.90
2018-04-15T04:17:16.627Z,99.90
2018-04-15T04:19:56.172Z,99.90
2018-04-15T04:22:35.500Z,99.90
2018-04-15T04:28:03.627Z,99.90
2018-04-15T04:30:31.123Z,99.90
2018-04-15T04:32:58.611Z,99.90
2018-04-15T04:35:26.091Z,99.90
2018-04-15T04:37:53.578Z,99.90
2018-04-15T04:40:21.166Z,99.90
2018-04-15T04:42:49.432Z,99.90
2018-04-15T04:45:17.692Z,99.90
2018-04-15T04:47:45.204Z,99.90
2018-04-15T04:50:12.735Z,99.90
2018-04-15T04:52:41.012Z,99.90
2018-04-15T04:55:08.566Z,99.90
2018-04-15T04:57:36.829Z,99.90
2018-04-15T05:00:05.122Z,99.90
2018-04-15T05:02:32.598Z,99.90
2018-04-15T05:05:00.087Z,99.90
2018-04-15T05:07:27.561Z,99.90
2018-04-15T05:09:55.155Z,99.90
2018-04-15T05:12:22.704Z,99.90
2018-04-15T05:14:50.206Z,99.90
2018-04-15T05:17:17.694Z,99.90
2018-04-15T05:19:45.956Z,99.90
2018-04-15T05:22:13.442Z,99.90
2018-04-15T05:24:41.706Z,99.90
2018-04-15T05:27:09.962Z,99.90
2018-04-15T05:29:37.447Z,99.90
2018-04-15T05:32:05.724Z,99.90
2018-04-15T05:34:33.212Z,99.90
2018-04-15T05:37:00.720Z,99.90
2018-04-15T05:39:29.012Z,99.90
2018-04-15T05:41:56.508Z,99.90
2018-04-15T05:44:24.004Z,99.90
2018-04-15T05:46:52.245Z,99.90
2018-04-15T05:49:19.859Z,99.90
2018-04-15T05:51:47.389Z,99.90
2018-04-15T05:54:14.882Z,99.90
2018-04-15T05:56:42.387Z,99.90
2018-04-15T05:59:09.873Z,99.90
2018-04-15T06:01:38.155Z,99.90
2018-04-15T06:04:06.427Z,99.90
2018-04-15T06:06:34.684Z,99.90
2018-04-15T06:09:02.161Z,99.90
2018-04-15T06:11:30.431Z,99.90
2018-04-15T06:13:58.816Z,99.90
2018-04-15T06:16:26.335Z,99.90
2018-04-15T06:18:53.818Z,99.90
2018-04-15T06:21:22.076Z,99.90
2018-04-15T06:23:49.587Z,99.90
2018-04-15T06:26:17.250Z,99.90
2018-04-15T06:28:44.730Z,99.90
2018-04-15T06:31:12.219Z,99.90
2018-04-15T06:33:40.475Z,99.90
2018-04-15T06:36:07.999Z,99.90
2018-04-15T06:38:35.539Z,99.90
2018-04-15T06:41:03.084Z,99.90
2018-04-15T06:43:30.576Z,99.90
2018-04-15T06:45:58.078Z,99.90
2018-04-15T06:48:26.332Z,99.90
2018-04-15T06:50:53.832Z,99.80
2018-04-15T06:53:21.362Z,99.90
2018-04-15T06:55:49.706Z,99.50
2018-04-15T06:58:17.161Z,99.60
2018-04-15T07:00:44.682Z,99.50
2018-04-15T07:03:12.218Z,99.10
2018-04-15T07:05:40.494Z,98.70
2018-04-15T07:08:08.761Z,98.70
2018-04-15T07:10:37.051Z,96.70
2018-04-15T07:13:04.530Z,96.70
2018-04-15T07:15:32.034Z,96.30
2018-04-15T07:17:59.518Z,96.40
2018-04-15T07:20:27.073Z,94.90
2018-04-15T07:22:54.561Z,94.20
2018-04-15T07:25:22.051Z,93.10
2018-04-15T07:27:49.548Z,92.00
2018-04-15T07:30:17.105Z,91.50
2018-04-15T07:32:44.585Z,91.60
2018-04-15T07:35:12.091Z,89.90
2018-04-15T07:37:39.590Z,89.20
2018-04-15T07:40:07.156Z,88.70
2018-04-15T07:42:34.667Z,88.60
2018-04-15T07:45:02.167Z,86.70
2018-04-15T07:47:29.800Z,86.80
2018-04-15T07:49:58.049Z,81.00
2018-04-15T07:52:25.636Z,80.60
2018-04-15T07:54:53.139Z,86.80
2018-04-15T07:57:20.622Z,83.70
2018-04-15T07:59:48.129Z,83.80
2018-04-15T08:02:15.622Z,84.60
2018-04-15T08:04:43.935Z,82.50
2018-04-15T08:07:11.412Z,82.00
2018-04-15T08:09:38.905Z,80.30
2018-04-15T08:12:06.418Z,77.40
2018-04-15T08:14:33.914Z,77.20
2018-04-15T08:17:01.521Z,78.40
2018-04-15T08:19:29.041Z,77.90
2018-04-15T08:21:56.640Z,76.60
2018-04-15T08:24:24.155Z,75.80
2018-04-15T08:26:51.646Z,79.50
2018-04-15T08:29:19.919Z,79.30
2018-04-15T08:31:48.174Z,79.50
2018-04-15T08:34:15.671Z,79.30
2018-04-15T08:36:43.171Z,82.10
2018-04-15T08:39:10.669Z,82.80
2018-04-15T08:41:38.251Z,84.30
2018-04-15T08:44:05.748Z,85.40
2018-04-15T08:46:34.040Z,89.80
2018-04-15T08:49:02.322Z,88.80
2018-04-15T08:51:30.584Z,88.30
2018-04-15T08:53:58.839Z,86.10
2018-04-15T08:56:26.330Z,86.00
2018-04-15T08:58:54.736Z,90.60
2018-04-15T09:01:22.236Z,90.10
2018-04-15T09:03:49.717Z,90.80
2018-04-15T09:06:18.001Z,85.20
2018-04-15T09:08:45.483Z,85.00
2018-04-15T09:11:13.007Z,86.80
2018-04-15T09:13:41.274Z,88.50
2018-04-15T09:16:09.563Z,88.20
2018-04-15T09:18:37.120Z,88.10
2018-04-15T09:21:04.684Z,81.70
2018-04-15T09:23:32.185Z,79.90
2018-04-15T09:25:59.709Z,84.10
2018-04-15T09:28:27.262Z,87.10
2018-04-15T09:31:00.548Z,86.90
2018-04-15T09:33:28.085Z,81.00
2018-04-15T09:35:56.371Z,81.60
2018-04-15T09:38:23.885Z,81.80
2018-04-15T09:40:51.481Z,79.00
2018-04-15T09:43:19.753Z,75.80
2018-04-15T09:45:48.035Z,77.20
2018-04-15T09:48:16.313Z,77.70
2018-04-15T09:50:43.851Z,77.00
2018-04-15T09:53:12.121Z,79.10
2018-04-15T09:55:39.719Z,79.00
2018-04-15T09:58:07.256Z,79.20
2018-04-15T10:00:35.516Z,82.30
2018-04-15T10:03:03.807Z,76.90
2018-04-15T10:05:31.306Z,76.90
2018-04-15T10:07:58.791Z,78.40
2018-04-15T10:10:26.366Z,78.80
2018-04-15T10:12:54.632Z,76.40
2018-04-15T10:15:22.902Z,75.30
2018-04-15T10:17:50.401Z,75.20
2018-04-15T10:20:17.923Z,75.90
2018-04-15T10:22:46.216Z,78.20
2018-04-15T10:25:13.718Z,78.10
2018-04-15T10:27:41.220Z,74.10
2018-04-15T10:30:09.522Z,75.00
2018-04-15T10:32:37.051Z,74.90
2018-04-15T10:35:05.304Z,75.50
2018-04-15T10:37:32.800Z,75.30
2018-04-15T10:40:00.348Z,74.60
2018-04-15T10:42:28.661Z,77.10
2018-04-15T10:44:56.284Z,77.40
2018-04-15T10:47:23.851Z,74.20
2018-04-15T10:49:51.409Z,75.20
2018-04-15T10:52:18.925Z,75.00
2018-04-15T10:54:46.474Z,74.90
2018-04-15T10:57:14.007Z,75.10
2018-04-15T10:59:41.554Z,75.30
2018-04-15T11:02:09.037Z,75.60
2018-04-15T11:04:36.554Z,75.80
2018-04-15T11:07:04.070Z,74.90
2018-04-15T11:09:32.346Z,72.50
2018-04-15T11:12:00.635Z,73.70
2018-04-15T11:14:28.916Z,74.00
2018-04-15T11:16:56.415Z,74.80
2018-04-15T11:19:23.914Z,72.90
2018-04-15T11:21:52.165Z,75.00
2018-04-15T11:24:19.760Z,74.90
2018-04-15T11:26:47.306Z,73.20
2018-04-15T11:29:14.789Z,74.70
2018-04-15T11:31:42.288Z,75.20
2018-04-15T11:34:09.826Z,75.10
2018-04-15T11:36:37.408Z,77.10
2018-04-15T11:39:06.531Z,75.90
2018-04-15T11:41:34.779Z,73.50
2018-04-15T11:44:02.270Z,73.50
2018-04-15T11:46:29.792Z,72.10
2018-04-15T11:48:58.049Z,74.00
2018-04-15T11:51:25.584Z,73.90
2018-04-15T11:53:53.055Z,74.00
2018-04-15T11:56:20.575Z,71.30
2018-04-15T11:58:48.083Z,73.40
2018-04-15T12:01:15.604Z,72.30
2018-04-15T12:03:43.217Z,71.20
2018-04-15T12:06:11.529Z,72.50
2018-04-15T12:08:39.052Z,72.50
2018-04-15T12:11:07.346Z,73.10
2018-04-15T12:13:34.852Z,73.10
2018-04-15T12:16:02.464Z,71.90
2018-04-15T12:18:29.958Z,71.70
2018-04-15T12:20:57.648Z,70.00
2018-04-15T12:23:25.919Z,73.20
2018-04-15T12:25:53.507Z,73.00
2018-04-15T12:28:21.784Z,73.70
2018-04-15T12:30:49.338Z,73.70
2018-04-15T12:33:17.614Z,72.40
2018-04-15T12:35:45.207Z,72.40
2018-04-15T12:38:12.701Z,71.80
2018-04-15T12:40:40.199Z,73.60
2018-04-15T12:43:07.692Z,71.80
2018-04-15T12:45:35.200Z,70.20
2018-04-15T12:48:02.748Z,72.40
2018-04-15T12:50:31.001Z,71.60
2018-04-15T12:52:58.591Z,71.60
2018-04-15T12:55:26.148Z,72.70
2018-04-15T12:57:53.670Z,71.00
2018-04-15T13:00:21.154Z,70.30
2018-04-15T13:02:49.539Z,72.10
2018-04-15T13:05:17.100Z,72.10
2018-04-15T13:07:44.582Z,71.80
2018-04-15T13:10:12.082Z,72.30
2018-04-15T13:12:39.580Z,72.20
2018-04-15T13:15:07.171Z,73.10
2018-04-15T13:17:34.665Z,73.50
2018-04-15T13:20:02.946Z,74.40
2018-04-15T13:22:31.256Z,76.60
2018-04-15T13:24:58.755Z,76.60
2018-04-15T13:27:26.344Z,74.30
2018-04-15T13:29:53.904Z,75.80
2018-04-15T13:32:21.426Z,76.00
2018-04-15T13:34:48.954Z,75.50
2018-04-15T13:37:16.451Z,75.70
2018-04-15T13:39:44.726Z,77.00
2018-04-15T13:42:12.992Z,76.60
2018-04-15T13:44:40.526Z,76.50
2018-04-15T13:47:08.004Z,77.00
2018-04-15T13:49:35.489Z,76.20
2018-04-15T13:52:03.753Z,77.20
2018-04-15T13:54:32.014Z,78.70
2018-04-15T13:56:59.530Z,78.60
2018-04-15T13:59:27.053Z,76.20
2018-04-15T14:01:54.605Z,78.20
2018-04-15T14:04:22.897Z,77.50
2018-04-15T14:06:50.440Z,77.50
2018-04-15T14:09:17.932Z,75.10
2018-04-15T14:11:45.473Z,75.80
2018-04-15T14:14:13.012Z,76.00
2018-04-15T14:16:40.514Z,76.50
2018-04-15T14:19:08.033Z,76.60
2018-04-15T14:21:35.524Z,78.60
2018-04-15T14:24:03.058Z,78.50
2018-04-15T14:26:30.548Z,77.60
2018-04-15T14:28:58.152Z,76.50
2018-04-15T14:31:26.402Z,78.20
2018-04-15T14:33:54.987Z,78.10
2018-04-15T14:36:22.576Z,78.60
2018-04-15T14:38:50.118Z,78.60
2018-04-15T14:41:18.426Z,77.60
2018-04-15T14:43:46.895Z,77.50
2018-04-15T14:46:14.418Z,77.50
2018-04-15T14:48:42.682Z,79.10
2018-04-15T14:51:10.279Z,79.10
2018-04-15T14:53:37.758Z,78.40
2018-04-15T14:56:05.279Z,79.00
2018-04-15T14:58:32.750Z,78.90
2018-04-15T15:01:00.245Z,79.70
2018-04-15T15:03:27.859Z,80.30
2018-04-15T15:05:55.361Z,79.60
2018-04-15T15:08:22.886Z,82.50
2018-04-15T15:10:50.412Z,81.50
2018-04-15T15:13:18.678Z,80.30
2018-04-15T15:15:46.946Z,82.40
2018-04-15T15:18:14.536Z,82.30
2018-04-15T15:20:42.052Z,82.60
2018-04-15T15:23:09.767Z,82.70
2018-04-15T15:25:37.254Z,82.30
2018-04-15T15:28:04.754Z,82.80
2018-04-15T15:30:33.253Z,83.80
2018-04-15T15:33:00.772Z,83.90
2018-04-15T15:35:29.155Z,84.30
2018-04-15T15:37:58.062Z,84.90
2018-04-15T15:40:25.811Z,84.90
2018-04-15T15:42:54.122Z,86.00
2018-04-15T15:45:21.670Z,85.90
2018-04-15T15:47:49.175Z,86.70
2018-04-15T15:50:16.688Z,86.60
2018-04-15T15:52:44.196Z,86.40
2018-04-15T15:55:11.684Z,86.60
2018-04-15T15:57:39.175Z,87.40
2018-04-15T16:00:07.458Z,88.00
2018-04-15T16:02:34.962Z,88.60
2018-04-15T16:05:03.222Z,88.50
2018-04-15T16:07:31.494Z,89.00
2018-04-15T16:09:59.741Z,90.80
2018-04-15T16:12:27.233Z,90.80
2018-04-15T16:14:55.510Z,93.00
2018-04-15T16:17:23.787Z,93.30
2018-04-15T16:19:52.172Z,92.10
2018-04-15T16:22:19.680Z,92.10
2018-04-15T16:24:47.198Z,92.40
2018-04-15T16:27:14.677Z,91.60
2018-04-15T16:29:42.220Z,92.00
2018-04-15T16:32:09.722Z,91.40
2018-04-15T16:34:37.264Z,91.80
2018-04-15T16:37:04.886Z,91.80
2018-04-15T16:39:32.414Z,92.00
2018-04-15T16:42:00.685Z,92.10
2018-04-15T16:44:28.938Z,92.40
2018-04-15T16:46:56.461Z,92.40
2018-04-15T16:49:23.960Z,92.60
2018-04-15T16:51:52.252Z,92.20
2018-04-15T16:54:20.683Z,92.50
2018-04-15T16:56:48.186Z,92.50
2018-04-15T16:59:15.686Z,92.70
2018-04-15T17:01:43.191Z,93.00
2018-04-15T17:04:11.473Z,92.60
2018-04-15T17:06:39.822Z,93.00
2018-04-15T17:09:07.330Z,92.90
2018-04-15T17:11:34.818Z,93.00
2018-04-15T17:14:02.330Z,92.80
2018-04-15T17:16:29.839Z,92.50
2018-04-15T17:18:58.167Z,92.40
2018-04-15T17:21:25.724Z,92.40
2018-04-15T17:23:53.203Z,92.50
2018-04-15T17:26:20.692Z,92.40
2018-04-15T17:28:48.204Z,93.10
2018-04-15T17:31:15.701Z,92.70
2018-04-15T17:33:43.237Z,92.80
2018-04-15T17:36:10.729Z,92.60
2018-04-15T17:38:38.234Z,92.90
2018-04-15T17:41:05.761Z,92.90
2018-04-15T17:43:34.025Z,93.30
2018-04-15T17:46:01.625Z,93.30
2018-04-15T17:48:29.340Z,93.40
2018-04-15T17:50:56.833Z,93.80
2018-04-15T17:53:24.330Z,94.90
2018-04-15T17:55:51.825Z,95.30
2018-04-15T17:58:20.096Z,94.40
2018-04-15T18:00:48.384Z,94.40
2018-04-15T18:03:15.890Z,94.40
2018-04-15T18:05:43.399Z,95.30
2018-04-15T18:08:10.910Z,95.60
2018-04-15T18:10:38.389Z,95.30
2018-04-15T18:13:06.005Z,95.20
2018-04-15T18:15:33.498Z,94.50
2018-04-15T18:18:01.000Z,94.70
2018-04-15T18:20:28.567Z,94.90
2018-04-15T18:22:56.219Z,94.80
2018-04-15T18:25:23.985Z,95.50
2018-04-15T18:27:51.499Z,95.90
2018-04-15T18:30:19.048Z,96.80
2018-04-15T18:32:46.533Z,97.00
2018-04-15T18:35:14.021Z,96.80
2018-04-15T18:37:41.568Z,96.80
2018-04-15T18:40:09.153Z,96.90
2018-04-15T18:42:36.664Z,96.70
2018-04-15T18:45:04.166Z,96.70
2018-04-15T18:47:41.691Z,97.80
2018-04-15T18:50:09.990Z,97.70
2018-04-15T18:52:37.520Z,97.70
2018-04-15T18:55:05.796Z,96.90
2018-04-15T18:57:34.082Z,97.10
2018-04-15T19:00:02.397Z,97.10
2018-04-15T19:02:29.912Z,97.10
2018-04-15T19:05:07.577Z,97.10
2018-04-15T19:07:35.090Z,97.00
2018-04-15T19:10:02.635Z,97.00
2018-04-15T19:12:30.281Z,97.10
2018-04-15T19:14:58.609Z,98.10
2018-04-15T19:17:26.103Z,98.10
2018-04-15T19:19:54.373Z,98.70
2018-04-15T19:22:22.650Z,99.30
2018-04-15T19:24:50.943Z,99.70
2018-04-15T19:27:18.449Z,99.70
2018-04-15T19:29:46.133Z,99.90
2018-04-15T19:32:13.706Z,99.90
2018-04-15T19:34:41.980Z,99.90
2018-04-15T19:37:10.271Z,99.90
2018-04-15T19:39:37.792Z,99.90
2018-04-15T19:42:05.447Z,99.90
2018-04-15T19:44:32.889Z,99.90
2018-04-15T19:47:00.388Z,99.90
2018-04-15T19:49:28.822Z,99.90
2018-04-15T19:51:56.342Z,99.90
2018-04-15T19:54:23.881Z,99.90
2018-04-15T19:56:52.262Z,99.90
2018-04-15T19:59:19.767Z,99.90
2018-04-15T20:01:47.366Z,99.90
2018-04-15T20:04:15.680Z,99.90
2018-04-15T20:06:43.209Z,99.90
2018-04-15T20:09:10.718Z,99.90
2018-04-15T20:11:38.205Z,99.90
2018-04-15T20:14:06.538Z,99.90
2018-04-15T20:16:34.021Z,99.90
2018-04-15T20:19:01.531Z,99.90
2018-04-15T20:21:29.032Z,99.90
2018-04-15T20:23:56.556Z,99.90
2018-04-15T20:26:24.034Z,99.90
2018-04-15T20:28:51.535Z,99.90
2018-04-15T20:31:19.038Z,99.90
2018-04-15T20:33:46.525Z,99.90
2018-04-15T20:36:14.016Z,99.90
2018-04-15T20:38:41.562Z,99.90
2018-04-15T20:41:09.066Z,99.90
2018-04-15T20:43:36.563Z,99.90
2018-04-15T20:46:04.845Z,99.90
2018-04-15T20:48:32.337Z,99.90
2018-04-15T20:50:59.866Z,99.90
2018-04-15T20:53:27.367Z,99.90
2018-04-15T20:55:54.857Z,99.90
2018-04-15T20:58:23.118Z,99.90
2018-04-15T21:00:50.621Z,99.90
2018-04-15T21:03:18.118Z,99.90
2018-04-15T21:05:45.602Z,99.90
2018-04-15T21:08:13.884Z,99.90
2018-04-15T21:10:42.178Z,99.90
2018-04-15T21:13:09.677Z,99.90
2018-04-15T21:15:37.172Z,99.90
2018-04-15T21:18:05.550Z,99.90
2018-04-15T21:20:33.802Z,99.90
2018-04-15T21:23:01.298Z,99.90
2018-04-15T21:25:28.859Z,99.90
2018-04-15T21:27:57.088Z,99.90
2018-04-15T21:30:24.611Z,99.90
2018-04-15T21:32:52.114Z,99.90
2018-04-15T21:35:20.414Z,99.90
2018-04-15T21:37:47.923Z,99.90
2018-04-15T21:40:15.418Z,99.90
2018-04-15T21:42:43.804Z,99.90
2018-04-15T21:45:11.302Z,99.90
2018-04-15T21:47:38.802Z,99.90
2018-04-15T21:50:07.070Z,99.90
2018-04-15T21:52:35.352Z,99.90
2018-04-15T21:55:03.601Z,99.90
2018-04-15T21:57:31.185Z,99.90
2018-04-15T21:59:59.464Z,99.90
2018-04-15T22:02:27.727Z,99.90
2018-04-15T22:04:56.000Z,99.90
2018-04-15T22:07:24.280Z,99.90
2018-04-15T22:09:52.550Z,99.90
2018-04-15T22:12:20.819Z,99.90
2018-04-15T22:14:48.419Z,99.90
2018-04-15T22:17:15.927Z,99.90
2018-04-15T22:19:43.517Z,99.90
2018-04-15T22:22:11.034Z,99.90
2018-04-15T22:24:38.547Z,99.90
2018-04-15T22:27:06.048Z,99.90
2018-04-15T22:29:33.562Z,99.90
2018-04-15T22:32:01.107Z,99.90
2018-04-15T22:34:28.655Z,99.90
2018-04-15T22:36:56.927Z,99.90
2018-04-15T22:39:24.434Z,99.90
2018-04-15T22:41:52.048Z,99.90
2018-04-15T22:44:19.607Z,99.90
2018-04-15T22:46:47.099Z,99.90
2018-04-15T22:49:20.346Z,99.90
2018-04-15T22:51:48.602Z,99.90
2018-04-15T22:54:16.191Z,99.90
2018-04-15T22:56:43.705Z,99.90
2018-04-15T22:59:11.198Z,99.90
2018-04-15T23:01:38.764Z,99.90
2018-04-15T23:04:06.275Z,99.90
2018-04-15T23:06:33.805Z,99.90
2018-04-15T23:09:01.300Z,99.90
2018-04-15T23:11:29.568Z,99.90
2018-04-15T23:13:57.153Z,99.90
2018-04-15T23:16:25.425Z,99.90
2018-04-15T23:18:53.710Z,99.90
2018-04-15T23:21:21.195Z,99.90
2018-04-15T23:23:48.741Z,99.90
2018-04-15T23:26:16.239Z,99.90
2018-04-15T23:28:43.749Z,99.90
2018-04-15T23:31:11.254Z,99.90
2018-04-15T23:33:38.800Z,99.90
2018-04-15T23:36:06.399Z,99.90
2018-04-15T23:38:34.670Z,99.90
2018-04-15T23:41:02.958Z,99.90
2018-04-15T23:43:30.451Z,99.90
2018-04-15T23:45:57.962Z,99.90
2018-04-15T23:48:26.243Z,99.90
2018-04-15T23:50:54.498Z,99.90
2018-04-15T23:53:22.774Z,99.90
2018-04-15T23:55:51.045Z,99.90
2018-04-15T23:58:19.319Z,99.90
